createdAt,value
2018-11-21T00:01:05.099Z,62.13
2018-11-21T00:03:33.420Z,64.53
2018-11-21T00:06:01.802Z,63.40
2018-11-21T00:08:30.159Z,68.60
2018-11-21T00:10:58.893Z,64.17
2018-11-21T00:13:27.281Z,65.60
2018-11-21T00:15:56.009Z,66.23
2018-11-21T00:18:24.387Z,65.60
2018-11-21T00:20:53.141Z,66.57
2018-11-21T00:23:21.786Z,72.33
2018-11-21T00:25:50.458Z,66.90
2018-11-21T00:28:18.826Z,65.47
2018-11-21T00:30:47.190Z,69.73
2018-11-21T00:33:15.581Z,62.20
2018-11-21T00:35:43.941Z,61.23
2018-11-21T00:38:12.361Z,61.50
2018-11-21T00:40:40.718Z,63.60
2018-11-21T00:43:09.152Z,70.17
2018-11-21T00:45:37.502Z,68.57
2018-11-21T00:48:05.847Z,69.30
2018-11-21T00:50:34.207Z,64.63
2018-11-21T00:53:02.564Z,71.47
2018-11-21T00:55:31.322Z,72.97
2018-11-21T00:57:59.703Z,69.97
2018-11-21T01:00:28.073Z,73.27
2018-11-21T01:02:56.439Z,70.33
2018-11-21T01:05:24.874Z,70.20
2018-11-21T01:07:53.266Z,74.00
2018-11-21T01:10:21.591Z,71.77
2018-11-21T01:12:50.275Z,68.30
2018-11-21T01:15:18.610Z,67.93
2018-11-21T01:17:46.981Z,67.60
2018-11-21T01:20:15.330Z,70.30
2018-11-21T01:22:43.791Z,71.20
2018-11-21T01:25:12.164Z,77.20
2018-11-21T01:27:40.518Z,68.87
2018-11-21T01:30:09.430Z,65.13
2018-11-21T01:32:38.105Z,76.17
2018-11-21T01:35:07.006Z,66.90
2018-11-21T01:37:35.454Z,66.47
2018-11-21T01:40:04.059Z,69.00
2018-11-21T01:42:32.440Z,69.70
2018-11-21T01:45:01.187Z,67.23
2018-11-21T01:47:29.871Z,64.10
2018-11-21T01:49:58.592Z,64.63
2018-11-21T01:52:27.275Z,62.53
2018-11-21T01:54:56.407Z,76.70
2018-11-21T01:57:24.768Z,65.17
2018-11-21T01:59:53.495Z,69.37
2018-11-21T02:02:21.892Z,63.73
2018-11-21T02:04:50.250Z,65.57
2018-11-21T02:07:18.629Z,69.30
2018-11-21T02:09:46.970Z,68.20
2018-11-21T02:12:15.352Z,63.93
2018-11-21T02:14:43.826Z,66.50
2018-11-21T02:17:12.180Z,68.77
2018-11-21T02:19:40.559Z,71.70
2018-11-21T02:22:09.143Z,72.13
2018-11-21T02:24:37.506Z,67.47
2018-11-21T02:27:06.213Z,73.80
2018-11-21T02:29:34.568Z,82.43
2018-11-21T02:32:03.024Z,77.77
2018-11-21T02:34:31.384Z,77.40
2018-11-21T02:36:59.762Z,74.03
2018-11-21T02:39:28.110Z,78.93
2018-11-21T02:41:56.481Z,82.43
2018-11-21T02:44:24.867Z,80.63
2018-11-21T02:46:53.227Z,79.40
2018-11-21T02:49:21.602Z,85.03
2018-11-21T02:51:50.378Z,81.43
2018-11-21T02:54:18.811Z,85.90
2018-11-21T02:57:19.046Z,85.87
2018-11-21T02:59:47.958Z,85.50
2018-11-21T03:02:16.328Z,83.23
2018-11-21T03:04:44.684Z,93.67
2018-11-21T03:07:13.131Z,95.60
2018-11-21T03:09:41.791Z,86.43
2018-11-21T03:12:10.420Z,94.67
2018-11-21T03:14:39.161Z,94.17
2018-11-21T03:17:07.534Z,89.20
2018-11-21T03:19:35.993Z,99.57
2018-11-21T03:22:04.363Z,92.00
2018-11-21T03:24:32.735Z,93.30
2018-11-21T03:27:01.370Z,99.53
2018-11-21T03:29:29.748Z,95.40
2018-11-21T03:31:58.159Z,91.57
2018-11-21T03:34:26.604Z,99.23
2018-11-21T03:36:55.591Z,93.87
2018-11-21T03:39:25.103Z,102.90
2018-11-21T03:41:53.473Z,106.63
2018-11-21T03:44:21.834Z,107.57
2018-11-21T03:46:50.263Z,104.63
2018-11-21T03:49:18.718Z,101.63
2018-11-21T03:51:47.072Z,110.20
2018-11-21T03:54:15.440Z,113.57
2018-11-21T03:56:44.120Z,103.10
2018-11-21T03:59:12.522Z,106.03
2018-11-21T04:01:41.219Z,117.23
2018-11-21T04:04:09.904Z,107.93
2018-11-21T04:06:38.623Z,109.47
2018-11-21T04:09:11.771Z,109.93
2018-11-21T04:11:40.625Z,118.17
2018-11-21T04:14:09.455Z,110.77
2018-11-21T04:16:37.800Z,114.20
2018-11-21T04:19:06.201Z,102.70
2018-11-21T04:21:34.567Z,120.10
2018-11-21T04:24:02.940Z,112.43
2018-11-21T04:26:31.304Z,100.27
2018-11-21T04:28:59.972Z,100.03
2018-11-21T04:31:28.326Z,93.70
2018-11-21T04:33:56.671Z,95.27
2018-11-21T04:36:25.342Z,101.97
2018-11-21T04:38:53.716Z,91.47
2018-11-21T04:41:22.393Z,91.63
2018-11-21T04:43:50.748Z,86.70
2018-11-21T04:46:19.179Z,87.73
2018-11-21T04:48:48.313Z,91.93
2018-11-21T04:51:17.014Z,92.03
2018-11-21T04:53:45.359Z,88.17
2018-11-21T04:56:14.155Z,92.83
2018-11-21T04:58:42.581Z,93.30
2018-11-21T05:01:10.953Z,88.47
2018-11-21T05:03:39.613Z,82.67
2018-11-21T05:06:07.989Z,90.87
2018-11-21T05:08:36.350Z,87.57
2018-11-21T05:11:04.717Z,91.67
2018-11-21T05:13:33.468Z,93.93
2018-11-21T05:16:01.838Z,97.43
2018-11-21T05:18:30.393Z,91.77
2018-11-21T05:20:59.104Z,96.03
2018-11-21T05:23:27.902Z,98.17
2018-11-21T05:25:56.281Z,93.73
2018-11-21T05:28:25.195Z,104.20
2018-11-21T05:30:53.854Z,93.63
2018-11-21T05:33:22.841Z,108.77
2018-11-21T05:35:51.251Z,101.43
2018-11-21T05:38:19.621Z,104.10
2018-11-21T05:40:47.987Z,104.53
2018-11-21T05:43:16.794Z,104.60
2018-11-21T05:45:45.486Z,104.37
2018-11-21T05:48:13.869Z,108.20
2018-11-21T05:50:42.225Z,114.03
2018-11-21T05:53:10.945Z,109.87
2018-11-21T05:55:39.711Z,105.60
2018-11-21T05:58:08.427Z,116.23
2018-11-21T06:00:37.132Z,110.27
2018-11-21T06:03:05.659Z,107.83
2018-11-21T06:05:34.042Z,106.67
2018-11-21T06:08:02.423Z,110.13
2018-11-21T06:10:31.175Z,117.40
2018-11-21T06:12:59.550Z,115.20
2018-11-21T06:15:27.933Z,110.70
2018-11-21T06:17:56.321Z,117.97
2018-11-21T06:20:24.827Z,126.37
2018-11-21T06:22:53.278Z,121.27
2018-11-21T06:25:22.077Z,117.17
2018-11-21T06:27:50.594Z,117.03
2018-11-21T06:30:18.970Z,131.13
2018-11-21T06:32:47.355Z,147.67
2018-11-21T06:35:15.759Z,159.10
2018-11-21T06:37:44.499Z,145.63
2018-11-21T06:40:14.463Z,150.03
2018-11-21T06:43:02.104Z,151.90
2018-11-21T06:45:30.545Z,133.80
2018-11-21T06:47:58.920Z,128.60
2018-11-21T06:50:27.302Z,126.40
2018-11-21T06:55:25.455Z,143.23
2018-11-21T06:57:53.843Z,131.07
2018-11-21T07:00:22.570Z,151.87
2018-11-21T07:02:50.957Z,126.27
2018-11-21T07:05:19.406Z,129.10
2018-11-21T07:07:47.836Z,120.73
2018-11-21T07:10:16.993Z,126.67
2018-11-21T07:12:45.987Z,118.07
2018-11-21T07:15:14.378Z,125.47
2018-11-21T07:17:42.732Z,127.17
2018-11-21T07:20:12.919Z,115.67
2018-11-21T07:22:41.649Z,136.80
2018-11-21T07:25:16.070Z,126.43
2018-11-21T07:27:44.655Z,132.83
2018-11-21T07:30:14.454Z,133.10
2018-11-21T07:32:42.866Z,124.87
2018-11-21T07:35:17.539Z,126.10
2018-11-21T07:37:40.872Z,117.10
2018-11-21T07:40:11.031Z,125.33
2018-11-21T07:42:39.448Z,120.23
2018-11-21T07:45:12.909Z,111.40
2018-11-21T07:47:41.809Z,109.87
2018-11-21T07:50:13.035Z,114.27
2018-11-21T07:52:41.732Z,122.53
2018-11-21T07:55:11.426Z,103.87
2018-11-21T07:57:41.247Z,116.60
2018-11-21T08:01:13.468Z,115.90
2018-11-21T08:03:46.721Z,122.83
2018-11-21T08:06:39.983Z,120.43
2018-11-21T08:09:27.924Z,128.77
2018-11-21T08:12:15.452Z,123.20
2018-11-21T08:15:19.075Z,117.43
2018-11-21T08:18:10.065Z,117.10
2018-11-21T08:21:16.163Z,126.03
2018-11-21T08:23:57.171Z,103.40
2018-11-21T08:26:50.509Z,104.27
2018-11-21T08:29:18.982Z,117.60
2018-11-21T08:31:48.008Z,122.40
2018-11-21T08:34:16.424Z,124.07
2018-11-21T08:36:45.187Z,109.37
2018-11-21T08:39:13.566Z,108.47
2018-11-21T08:41:41.943Z,109.80
2018-11-21T08:44:10.287Z,106.80
2018-11-21T08:46:38.690Z,102.63
2018-11-21T08:49:07.081Z,117.50
2018-11-21T08:51:35.460Z,107.57
2018-11-21T08:54:03.816Z,95.93
2018-11-21T08:56:32.536Z,98.90
2018-11-21T08:59:00.558Z,98.97
2018-11-21T09:01:29.279Z,103.93
2018-11-21T09:03:57.675Z,101.10
2018-11-21T09:06:26.333Z,103.10
2018-11-21T09:08:54.774Z,117.13
2018-11-21T09:11:23.135Z,98.10
2018-11-21T09:13:53.250Z,104.30
2018-11-21T09:16:19.874Z,95.20
2018-11-21T09:18:48.276Z,92.47
2018-11-21T09:21:16.631Z,93.63
2018-11-21T09:23:45.062Z,84.70
2018-11-21T09:26:13.393Z,88.57
2018-11-21T09:28:42.120Z,92.70
2018-11-21T09:31:10.467Z,82.97
2018-11-21T09:33:38.826Z,86.53
2018-11-21T09:36:07.527Z,81.67
2018-11-21T09:38:36.606Z,83.47
2018-11-21T09:41:05.269Z,88.57
2018-11-21T09:43:33.606Z,89.77
2018-11-21T09:46:02.759Z,77.73
2018-11-21T09:48:31.120Z,79.87
2018-11-21T09:50:59.844Z,81.17
2018-11-21T09:53:28.542Z,82.37
2018-11-21T09:55:56.889Z,74.93
2018-11-21T09:58:25.257Z,81.70
2018-11-21T10:01:30.252Z,76.57
2018-11-21T10:04:01.010Z,76.53
2018-11-21T10:06:29.979Z,70.17
2018-11-21T10:09:00.203Z,65.27
2018-11-21T10:11:29.288Z,69.87
2018-11-21T10:13:57.694Z,64.70
2018-11-21T10:16:26.073Z,70.47
2018-11-21T10:18:55.851Z,60.13
2018-11-21T10:21:25.862Z,64.00
2018-11-21T10:23:54.609Z,55.60
2018-11-21T10:26:23.345Z,52.87
2018-11-21T10:28:52.446Z,47.07
2018-11-21T10:31:20.820Z,59.73
2018-11-21T10:33:49.241Z,50.43
2018-11-21T10:36:18.236Z,48.40
2018-11-21T10:38:47.010Z,54.87
2018-11-21T10:41:15.394Z,57.43
2018-11-21T10:43:44.236Z,50.03
2018-11-21T10:46:13.456Z,49.47
2018-11-21T10:48:42.417Z,49.93
2018-11-21T10:51:10.778Z,50.27
2018-11-21T10:53:40.604Z,45.87
2018-11-21T10:56:08.995Z,46.53
2018-11-21T10:58:37.361Z,43.83
2018-11-21T11:01:27.876Z,39.70
2018-11-21T11:04:09.421Z,44.33
2018-11-21T11:07:09.326Z,38.93
2018-11-21T11:09:56.893Z,44.07
2018-11-21T11:12:47.460Z,38.70
2018-11-21T11:15:28.793Z,45.27
2018-11-21T11:18:09.229Z,36.90
2018-11-21T11:21:11.849Z,36.23
2018-11-21T11:23:53.188Z,38.00
2018-11-21T11:26:39.320Z,40.20
2018-11-21T11:29:30.130Z,41.87
2018-11-21T11:32:16.300Z,45.77
2018-11-21T11:35:03.850Z,37.17
2018-11-21T11:37:50.028Z,47.50
2018-11-21T11:40:46.307Z,36.93
2018-11-21T11:43:48.907Z,41.37
2018-11-21T11:46:38.954Z,41.80
2018-11-21T11:49:25.270Z,42.10
2018-11-21T11:52:11.786Z,33.10
2018-11-21T11:55:11.270Z,37.07
2018-11-21T11:58:07.927Z,36.23
2018-11-21T12:01:11.155Z,34.17
2018-11-21T12:03:58.763Z,33.60
2018-11-21T12:06:46.292Z,31.57
2018-11-21T12:09:42.620Z,28.80
2018-11-21T12:12:19.261Z,32.77
2018-11-21T12:15:21.947Z,34.93
2018-11-21T12:18:15.769Z,32.33
2018-11-21T12:21:01.912Z,30.00
2018-11-21T12:23:55.378Z,29.47
2018-11-21T12:26:36.437Z,32.40
2018-11-21T12:29:33.128Z,32.50
2018-11-21T12:32:20.644Z,32.00
2018-11-21T12:35:08.604Z,34.40
2018-11-21T12:38:02.065Z,29.10
2018-11-21T12:40:48.112Z,38.47
2018-11-21T12:43:41.607Z,34.17
2018-11-21T12:46:40.854Z,30.80
2018-11-21T12:49:37.353Z,36.17
